createdAt,value
2022-08-09T00:00:17.664Z,78.96
2022-08-09T00:01:17.638Z,79.06
2022-08-09T00:02:17.579Z,79.35
2022-08-09T00:04:00.805Z,79.35
2022-08-09T00:04:34.514Z,79.44
2022-08-09T00:06:17.601Z,79.54
2022-08-09T00:06:22.874Z,79.35
2022-08-09T00:07:17.389Z,79.06
2022-08-09T00:08:32.372Z,79.74
2022-08-09T00:09:17.325Z,79.54
2022-08-09T00:10:21.116Z,79.79
2022-08-09T00:11:24.864Z,80.37
2022-08-09T00:12:22.845Z,80.18
2022-08-09T00:13:18.184Z,80.46
2022-08-09T00:14:22.065Z,80.27
2022-08-09T00:15:17.153Z,80.66
2022-08-09T00:16:17.127Z,80.76
2022-08-09T00:18:04.645Z,80.46
2022-08-09T00:18:17.066Z,80.85
2022-08-09T00:19:18.578Z,81.04
2022-08-09T00:20:17.006Z,80.56
2022-08-09T00:21:16.983Z,80.66
2022-08-09T00:22:18.251Z,80.66
2022-08-09T00:23:55.459Z,80.85
2022-08-09T00:24:16.892Z,81.52
2022-08-09T00:25:23.618Z,80.94
2022-08-09T00:26:16.834Z,81.20
2022-08-09T00:27:16.810Z,81.04
2022-08-09T00:28:16.775Z,81.72
2022-08-09T00:29:39.418Z,81.24
2022-08-09T00:30:25.309Z,80.81
2022-08-09T00:31:55.799Z,81.24
2022-08-09T00:32:26.713Z,81.43
2022-08-09T00:33:16.629Z,81.77
2022-08-09T00:34:19.495Z,81.96
2022-08-09T00:35:16.567Z,82.26
2022-08-09T00:36:16.547Z,81.68
2022-08-09T00:37:16.513Z,81.68
2022-08-09T00:38:16.480Z,81.87
2022-08-09T00:39:17.064Z,81.87
2022-08-09T00:40:19.695Z,81.87
2022-08-09T00:44:13.486Z,81.68
2022-08-09T00:44:14.815Z,81.96
2022-08-09T00:44:14.880Z,81.68
2022-08-09T00:44:25.409Z,82.16
2022-08-09T00:45:16.502Z,81.87
2022-08-09T00:46:28.442Z,82.16
2022-08-09T00:47:16.219Z,82.35
2022-08-09T00:48:19.453Z,82.45
2022-08-09T00:49:16.158Z,82.06
2022-08-09T00:50:16.126Z,82.64
2022-08-09T00:51:16.101Z,82.74
2022-08-09T00:52:28.209Z,81.96
2022-08-09T00:53:16.039Z,82.83
2022-08-09T00:54:16.015Z,82.26
2022-08-09T00:55:32.869Z,82.45
2022-08-09T00:56:15.953Z,82.26
2022-08-09T00:57:24.627Z,82.06
2022-08-09T00:58:25.454Z,82.35
2022-08-09T00:59:20.195Z,82.16
2022-08-09T01:00:21.859Z,82.74
2022-08-09T01:01:16.027Z,82.45
2022-08-09T01:02:15.771Z,82.83
2022-08-09T01:03:15.744Z,82.54
2022-08-09T01:04:15.714Z,82.16
2022-08-09T01:05:21.830Z,82.35
2022-08-09T01:06:18.390Z,82.35
2022-08-09T01:07:15.623Z,82.41
2022-08-09T01:08:16.241Z,82.64
2022-08-09T01:09:15.565Z,82.93
2022-08-09T01:10:15.538Z,83.22
2022-08-09T01:11:15.510Z,82.93
2022-08-09T01:12:15.478Z,83.22
2022-08-09T01:13:16.706Z,83.31
2022-08-09T01:14:15.420Z,83.08
2022-08-09T01:15:16.918Z,82.83
2022-08-09T01:16:15.360Z,83.70
2022-08-09T01:17:16.062Z,82.79
2022-08-09T01:18:15.300Z,82.98
2022-08-09T01:19:17.076Z,82.83
2022-08-09T01:20:15.237Z,82.83
2022-08-09T01:21:15.210Z,83.08
2022-08-09T01:22:16.667Z,82.93
2022-08-09T01:24:02.809Z,82.93
2022-08-09T01:24:15.122Z,83.12
2022-08-09T01:25:15.090Z,83.56
2022-08-09T01:26:15.058Z,83.51
2022-08-09T01:27:15.033Z,83.12
2022-08-09T01:28:15.003Z,83.41
2022-08-09T01:29:15.384Z,83.56
2022-08-09T01:30:35.351Z,83.56
2022-08-09T01:32:29.572Z,83.66
2022-08-09T01:32:30.681Z,83.47
2022-08-09T01:33:14.856Z,83.08
2022-08-09T01:34:14.821Z,83.66
2022-08-09T01:35:28.444Z,83.56
2022-08-09T01:36:14.767Z,83.56
2022-08-09T01:37:14.738Z,83.56
2022-08-09T01:38:15.487Z,83.66
2022-08-09T01:39:14.705Z,83.37
2022-08-09T01:40:23.293Z,83.75
2022-08-09T01:41:14.616Z,83.47
2022-08-09T01:42:14.586Z,84.05
2022-08-09T01:43:14.557Z,83.37
2022-08-09T01:44:14.528Z,83.18
2022-08-09T01:45:14.495Z,83.95
2022-08-09T01:46:18.210Z,84.05
2022-08-09T01:47:14.441Z,83.85
2022-08-09T01:48:15.604Z,83.95
2022-08-09T01:49:14.812Z,83.75
2022-08-09T01:50:14.351Z,84.43
2022-08-09T01:51:14.320Z,84.43
2022-08-09T01:52:14.576Z,84.43
2022-08-09T01:53:19.331Z,84.14
2022-08-09T01:54:14.268Z,84.23
2022-08-09T01:55:14.201Z,84.43
2022-08-09T01:56:14.172Z,84.14
2022-08-09T01:57:14.975Z,84.23
2022-08-09T01:58:14.116Z,84.33
2022-08-09T01:59:16.274Z,84.33
2022-08-09T02:00:34.876Z,84.43
2022-08-09T02:01:18.336Z,84.23
2022-08-09T02:02:14.092Z,84.23
2022-08-09T02:03:13.986Z,84.62
2022-08-09T02:04:13.935Z,84.43
2022-08-09T02:05:15.734Z,84.39
2022-08-09T02:06:13.869Z,84.48
2022-08-09T02:07:18.276Z,84.58
2022-08-09T02:08:41.353Z,85.35
2022-08-09T02:09:13.784Z,85.16
2022-08-09T02:10:13.752Z,85.16
2022-08-09T02:11:17.358Z,84.19
2022-08-09T02:12:21.111Z,84.87
2022-08-09T02:13:13.661Z,85.35
2022-08-09T02:14:15.900Z,85.54
2022-08-09T02:15:16.927Z,85.54
2022-08-09T02:16:13.571Z,85.44
2022-08-09T02:17:14.929Z,85.35
2022-08-09T02:18:13.517Z,85.44
2022-08-09T02:19:13.482Z,85.83
2022-08-09T02:20:22.719Z,85.64
2022-08-09T02:21:21.937Z,85.54
2022-08-09T02:22:13.396Z,85.74
2022-08-09T02:23:13.362Z,85.93
2022-08-09T02:24:26.530Z,86.02
2022-08-09T02:25:15.043Z,85.83
2022-08-09T02:26:26.839Z,86.12
2022-08-09T02:27:13.245Z,86.02
2022-08-09T02:28:13.211Z,86.12
2022-08-09T02:29:13.188Z,85.54
2022-08-09T02:30:13.153Z,85.93
2022-08-09T02:31:13.123Z,86.02
2022-08-09T02:32:13.094Z,85.74
2022-08-09T02:33:14.367Z,85.74
2022-08-09T02:34:40.712Z,85.74
2022-08-09T02:35:17.338Z,85.74
2022-08-09T02:36:12.972Z,86.41
2022-08-09T02:37:12.940Z,85.74
2022-08-09T02:38:27.893Z,86.31
2022-08-09T02:39:14.442Z,86.31
2022-08-09T02:40:12.918Z,86.22
2022-08-09T02:41:12.827Z,86.08
2022-08-09T02:42:12.791Z,86.31
2022-08-09T02:43:12.764Z,86.31
2022-08-09T02:44:19.893Z,86.31
2022-08-09T02:45:12.705Z,86.22
2022-08-09T02:46:12.674Z,86.69
2022-08-09T02:47:12.643Z,86.31
2022-08-09T02:48:30.910Z,86.51
2022-08-09T02:49:12.583Z,86.94
2022-08-09T02:50:12.549Z,87.52
2022-08-09T02:51:12.520Z,87.52
2022-08-09T02:52:12.503Z,87.42
2022-08-09T02:53:26.416Z,86.85
2022-08-09T02:54:13.788Z,87.71
2022-08-09T02:55:21.059Z,87.52
2022-08-09T02:56:12.382Z,87.33
2022-08-09T02:57:14.037Z,87.33
2022-08-09T02:58:32.800Z,87.42
2022-08-09T02:59:16.050Z,87.42
2022-08-09T03:00:25.569Z,87.71
2022-08-09T03:01:15.214Z,86.94
2022-08-09T03:02:16.912Z,87.42
2022-08-09T03:03:12.157Z,87.42
2022-08-09T03:04:16.738Z,87.33
2022-08-09T03:05:16.680Z,87.42
2022-08-09T03:06:12.075Z,87.42
2022-08-09T03:07:14.362Z,87.33
2022-08-09T03:08:12.009Z,87.33
2022-08-09T03:09:11.978Z,87.52
2022-08-09T03:10:11.949Z,87.71
2022-08-09T03:11:11.916Z,87.52
2022-08-09T03:12:13.260Z,87.90
2022-08-09T03:13:11.860Z,87.42
2022-08-09T03:14:11.827Z,87.42
2022-08-09T03:15:11.803Z,88.00
2022-08-09T03:16:11.766Z,87.42
2022-08-09T03:17:16.630Z,88.29
2022-08-09T03:18:11.704Z,88.29
2022-08-09T03:19:14.422Z,88.10
2022-08-09T03:20:11.854Z,88.00
2022-08-09T03:21:11.651Z,88.29
2022-08-09T03:22:11.905Z,88.29
2022-08-09T03:23:15.030Z,88.39
2022-08-09T03:24:11.522Z,88.19
2022-08-09T03:25:26.544Z,88.29
2022-08-09T03:26:11.463Z,88.10
2022-08-09T03:27:11.435Z,87.90
2022-08-09T03:28:11.574Z,87.96
2022-08-09T03:29:13.511Z,88.19
2022-08-09T03:30:11.342Z,88.67
2022-08-09T03:31:21.395Z,88.67
2022-08-09T03:32:11.284Z,88.34
2022-08-09T03:33:17.168Z,88.77
2022-08-09T03:34:11.216Z,88.63
2022-08-09T03:35:14.978Z,88.53
2022-08-09T03:36:16.807Z,88.57
2022-08-09T03:37:55.605Z,88.10
2022-08-09T03:38:11.096Z,88.57
2022-08-09T03:39:11.115Z,88.87
2022-08-09T03:40:13.050Z,88.67
2022-08-09T03:41:15.449Z,88.63
2022-08-09T03:42:10.975Z,89.40
2022-08-09T03:43:11.542Z,89.25
2022-08-09T03:44:12.047Z,89.11
2022-08-09T03:45:10.901Z,89.06
2022-08-09T03:46:20.153Z,89.01
2022-08-09T03:47:10.824Z,89.01
2022-08-09T03:48:10.942Z,89.21
2022-08-09T03:49:10.763Z,89.30
2022-08-09T03:50:10.733Z,89.40
2022-08-09T03:51:43.808Z,89.50
2022-08-09T03:52:10.677Z,89.30
2022-08-09T03:53:10.896Z,89.30
2022-08-09T03:54:11.365Z,89.21
2022-08-09T03:55:10.597Z,89.40
2022-08-09T03:56:10.550Z,89.69
2022-08-09T03:57:18.736Z,89.50
2022-08-09T03:58:16.269Z,89.50
2022-08-09T03:59:13.720Z,89.78
2022-08-09T04:00:10.429Z,89.59
2022-08-09T04:01:10.482Z,89.40
2022-08-09T04:02:10.369Z,89.50
2022-08-09T04:03:11.778Z,89.50
2022-08-09T04:04:14.805Z,89.50
2022-08-09T04:05:17.082Z,89.40
2022-08-09T04:06:10.261Z,89.40
2022-08-09T04:07:10.214Z,89.30
2022-08-09T04:08:10.182Z,89.40
2022-08-09T04:09:41.810Z,89.40
2022-08-09T04:10:10.124Z,89.59
2022-08-09T04:11:11.200Z,89.50
2022-08-09T04:12:11.659Z,89.50
2022-08-09T04:13:11.432Z,89.30
2022-08-09T04:14:53.404Z,89.59
2022-08-09T04:15:17.133Z,89.98
2022-08-09T04:16:19.352Z,89.40
2022-08-09T04:17:09.906Z,89.50
2022-08-09T04:18:16.754Z,89.69
2022-08-09T04:19:11.201Z,89.40
2022-08-09T04:20:09.815Z,89.40
2022-08-09T04:21:09.787Z,89.40
2022-08-09T04:22:11.884Z,89.69
2022-08-09T04:23:16.583Z,89.88
2022-08-09T04:24:09.698Z,90.17
2022-08-09T04:25:09.681Z,90.07
2022-08-09T04:26:09.637Z,90.17
2022-08-09T04:27:09.610Z,90.07
2022-08-09T04:28:09.577Z,90.17
2022-08-09T04:29:13.476Z,89.98
2022-08-09T04:30:09.512Z,90.07
2022-08-09T04:31:10.287Z,90.07
2022-08-09T04:32:09.451Z,90.26
2022-08-09T04:33:09.424Z,90.07
2022-08-09T04:34:09.390Z,90.36
2022-08-09T04:35:10.370Z,90.26
2022-08-09T04:36:09.329Z,90.75
2022-08-09T04:37:09.297Z,90.94
2022-08-09T04:38:09.321Z,90.65
2022-08-09T04:39:09.279Z,91.13
2022-08-09T04:40:09.205Z,91.03
2022-08-09T04:41:11.869Z,90.84
2022-08-09T04:42:09.396Z,90.84
2022-08-09T04:43:09.118Z,90.75
2022-08-09T04:44:09.741Z,90.75
2022-08-09T04:45:09.051Z,90.75
2022-08-09T04:46:09.023Z,90.84
2022-08-09T04:47:08.994Z,90.84
2022-08-09T04:48:10.540Z,91.13
2022-08-09T04:49:08.932Z,90.65
2022-08-09T04:50:08.898Z,90.65
2022-08-09T04:51:08.864Z,90.75
2022-08-09T04:52:09.624Z,90.94
2022-08-09T04:53:13.300Z,90.75
2022-08-09T04:54:08.778Z,91.32
2022-08-09T04:55:12.306Z,90.94
2022-08-09T04:56:08.717Z,90.94
2022-08-09T04:57:09.327Z,91.13
2022-08-09T04:58:09.217Z,90.65
2022-08-09T04:59:13.185Z,90.84
2022-08-09T05:00:08.593Z,90.75
2022-08-09T05:01:16.083Z,90.94
2022-08-09T05:02:08.529Z,90.80
2022-08-09T05:03:40.481Z,91.28
2022-08-09T05:04:08.508Z,91.85
2022-08-09T05:05:09.746Z,91.66
2022-08-09T05:06:08.426Z,91.18
2022-08-09T05:07:08.407Z,91.75
2022-08-09T05:08:08.347Z,91.85
2022-08-09T05:12:08.470Z,92.33
2022-08-09T05:13:08.531Z,91.37
2022-08-09T05:14:08.387Z,92.33
2022-08-09T05:15:11.394Z,92.14
2022-08-09T05:18:38.429Z,91.37
2022-08-09T05:18:59.057Z,91.95
2022-08-09T05:20:43.936Z,91.85
2022-08-09T05:21:46.990Z,92.05
2022-08-09T05:23:54.027Z,91.56
2022-08-09T05:24:47.758Z,91.56
2022-08-09T05:26:51.672Z,92.24
2022-08-09T05:27:51.623Z,92.72
2022-08-09T05:29:55.529Z,92.24
2022-08-09T05:30:55.503Z,92.81
2022-08-09T05:32:59.413Z,92.62
2022-08-09T05:33:59.363Z,92.24
2022-08-09T05:35:52.209Z,92.43
2022-08-09T05:36:52.164Z,92.38
2022-08-09T05:38:56.077Z,92.67
2022-08-09T05:39:56.095Z,92.76
2022-08-09T05:42:04.439Z,93.05
2022-08-09T05:42:59.902Z,93.44
2022-08-09T05:45:03.811Z,92.76
2022-08-09T05:46:03.773Z,92.76
2022-08-09T05:48:07.685Z,92.76
2022-08-09T05:49:07.640Z,92.19
2022-08-09T05:51:30.375Z,92.47
2022-08-09T05:52:11.510Z,92.57
2022-08-09T05:54:15.433Z,92.67
2022-08-09T05:55:21.271Z,92.47
2022-08-09T05:57:19.441Z,92.57
2022-08-09T05:58:19.255Z,92.86
2022-08-09T06:00:23.174Z,92.43
2022-08-09T06:01:23.120Z,92.57
2022-08-09T06:03:34.803Z,92.23
2022-08-09T06:04:34.910Z,91.94
2022-08-09T06:06:30.900Z,91.56
2022-08-09T06:07:30.863Z,91.66
2022-08-09T06:09:55.079Z,91.27
2022-08-09T06:10:34.728Z,90.98
2022-08-09T06:12:38.633Z,91.03
2022-08-09T06:13:38.597Z,90.83
2022-08-09T06:15:31.445Z,91.13
2022-08-09T06:16:31.398Z,90.93
2022-08-09T06:18:35.322Z,91.03
2022-08-09T06:19:35.272Z,90.55
2022-08-09T06:21:50.361Z,90.55
2022-08-09T06:22:39.140Z,90.26
2022-08-09T06:24:43.058Z,90.73
2022-08-09T06:25:43.212Z,91.31
2022-08-09T06:27:51.849Z,91.03
2022-08-09T06:28:46.883Z,91.13
2022-08-09T06:30:50.797Z,90.73
2022-08-09T06:32:17.281Z,91.13
2022-08-09T06:33:54.695Z,90.59
2022-08-09T06:34:54.649Z,90.45
2022-08-09T06:36:59.815Z,90.30
2022-08-09T06:38:06.014Z,89.92
2022-08-09T06:40:05.650Z,89.63
2022-08-09T06:41:02.365Z,90.20
2022-08-09T06:42:11.324Z,90.01
2022-08-09T06:43:02.323Z,90.20
2022-08-09T06:44:02.273Z,90.11
2022-08-09T06:45:20.425Z,89.92
2022-08-09T06:46:05.163Z,89.63
2022-08-09T06:47:02.186Z,89.92
2022-08-09T06:48:02.159Z,89.15
2022-08-09T06:49:02.128Z,89.43
2022-08-09T06:50:14.606Z,89.15
2022-08-09T06:51:05.177Z,89.15
2022-08-09T06:52:02.040Z,89.29
2022-08-09T06:53:02.009Z,89.82
2022-08-09T06:54:01.985Z,89.00
2022-08-09T06:55:01.948Z,88.90
2022-08-09T06:56:01.916Z,89.19
2022-08-09T06:57:01.919Z,88.95
2022-08-09T06:58:04.530Z,89.00
2022-08-09T07:00:53.060Z,89.00
2022-08-09T07:00:53.150Z,89.86
2022-08-09T07:01:01.854Z,88.71
2022-08-09T07:02:04.363Z,88.42
2022-08-09T07:03:01.730Z,88.51
2022-08-09T07:04:04.062Z,88.42
2022-08-09T07:05:01.657Z,88.61
2022-08-09T07:06:04.893Z,88.42
2022-08-09T07:07:04.995Z,87.26
2022-08-09T07:08:01.889Z,87.65
2022-08-09T07:09:01.531Z,87.65
2022-08-09T07:10:13.130Z,87.74
2022-08-09T07:11:01.477Z,87.70
2022-08-09T07:12:01.444Z,87.17
2022-08-09T07:13:05.424Z,87.17
2022-08-09T07:14:05.644Z,87.07
2022-08-09T07:15:03.478Z,86.59
2022-08-09T07:16:43.269Z,86.73
2022-08-09T07:17:01.294Z,86.54
2022-08-09T07:18:02.106Z,86.54
2022-08-09T07:19:01.236Z,86.54
2022-08-09T07:20:01.208Z,86.35
2022-08-09T07:21:01.177Z,86.92
2022-08-09T07:22:01.144Z,86.05
2022-08-09T07:23:01.118Z,86.35
2022-08-09T07:24:01.092Z,86.15
2022-08-09T07:25:01.066Z,86.15
2022-08-09T07:26:02.443Z,85.91
2022-08-09T07:27:01.004Z,85.42
2022-08-09T07:28:00.973Z,85.67
2022-08-09T07:29:09.111Z,84.65
2022-08-09T07:30:00.913Z,84.94
2022-08-09T07:31:00.885Z,84.55
2022-08-09T07:32:00.851Z,84.84
2022-08-09T07:33:00.824Z,85.71
2022-08-09T07:34:00.800Z,85.33
2022-08-09T07:35:00.770Z,85.23
2022-08-09T07:36:00.736Z,85.03
2022-08-09T07:37:02.617Z,84.94
2022-08-09T07:38:00.677Z,84.94
2022-08-09T07:39:02.234Z,84.75
2022-08-09T07:40:00.693Z,84.79
2022-08-09T07:41:11.475Z,84.94
2022-08-09T07:42:00.563Z,84.65
2022-08-09T07:43:00.535Z,84.69
2022-08-09T07:44:00.502Z,84.75
2022-08-09T07:45:06.576Z,84.79
2022-08-09T07:46:01.962Z,83.92
2022-08-09T07:47:00.419Z,83.83
2022-08-09T07:48:04.122Z,84.17
2022-08-09T07:49:00.525Z,83.73
2022-08-09T07:50:07.695Z,83.92
2022-08-09T07:51:10.190Z,83.92
2022-08-09T07:52:03.181Z,83.63
2022-08-09T07:53:02.994Z,83.63
2022-08-09T07:54:07.321Z,83.63
2022-08-09T07:55:00.200Z,83.15
2022-08-09T07:56:03.378Z,83.25
2022-08-09T07:57:00.127Z,83.25
2022-08-09T07:58:00.125Z,83.63
2022-08-09T07:59:00.080Z,83.63
2022-08-09T08:00:03.104Z,83.53
2022-08-09T08:01:06.714Z,83.34
2022-08-09T08:02:00.015Z,83.05
2022-08-09T08:02:59.952Z,83.25
2022-08-09T08:03:59.923Z,82.86
2022-08-09T08:04:59.897Z,82.86
2022-08-09T08:05:59.865Z,82.67
2022-08-09T08:07:00.029Z,82.61
2022-08-09T08:08:44.578Z,82.23
2022-08-09T08:09:04.552Z,82.23
2022-08-09T08:10:08.933Z,82.51
2022-08-09T08:11:03.221Z,82.42
2022-08-09T08:12:09.762Z,82.32
2022-08-09T08:12:59.665Z,81.84
2022-08-09T08:13:59.638Z,82.03
2022-08-09T08:14:59.790Z,81.84
2022-08-09T08:15:59.575Z,81.65
2022-08-09T08:17:07.716Z,81.65
2022-08-09T08:17:59.524Z,81.16
2022-08-09T08:18:59.495Z,81.35
2022-08-09T08:19:59.483Z,81.40
2022-08-09T08:20:59.437Z,80.39
2022-08-09T08:21:59.429Z,80.87
2022-08-09T08:23:01.508Z,80.72
2022-08-09T08:24:01.010Z,80.82
2022-08-09T08:24:59.334Z,80.72
2022-08-09T08:26:06.346Z,81.11
2022-08-09T08:26:59.264Z,81.49
2022-08-09T08:27:59.237Z,80.91
2022-08-09T08:28:59.212Z,80.91
2022-08-09T08:29:59.178Z,81.11
2022-08-09T08:30:59.202Z,81.01
2022-08-09T08:32:05.599Z,80.53
2022-08-09T08:32:59.092Z,80.72
2022-08-09T08:33:59.060Z,80.38
2022-08-09T08:34:59.333Z,80.24
2022-08-09T08:36:03.535Z,80.18
2022-08-09T08:36:58.976Z,79.60
2022-08-09T08:38:02.043Z,79.89
2022-08-09T08:38:58.938Z,79.60
2022-08-09T08:39:58.939Z,79.22
2022-08-09T08:40:58.868Z,79.41
2022-08-09T08:41:59.061Z,79.60
2022-08-09T08:42:58.981Z,79.22
2022-08-09T08:44:02.486Z,78.83
2022-08-09T08:44:58.752Z,78.34
2022-08-09T08:46:10.110Z,77.86
2022-08-09T08:47:02.818Z,78.06
2022-08-09T08:47:59.030Z,77.76
2022-08-09T08:48:58.665Z,77.48
2022-08-09T08:49:58.616Z,77.32
2022-08-09T08:50:58.730Z,76.93
2022-08-09T08:52:00.502Z,77.80
2022-08-09T08:53:00.523Z,78.19
2022-08-09T08:54:03.206Z,78.09
2022-08-09T08:54:58.472Z,78.87
2022-08-09T08:55:58.439Z,78.19
2022-08-09T08:56:58.413Z,78.09
2022-08-09T08:57:58.537Z,78.38
2022-08-09T08:58:58.908Z,77.71
2022-08-09T08:59:59.128Z,77.71
2022-08-09T09:00:58.303Z,78.38
2022-08-09T09:01:59.708Z,78.29
2022-08-09T09:03:02.816Z,77.80
2022-08-09T09:03:58.273Z,77.03
2022-08-09T09:04:58.193Z,76.49
2022-08-09T09:06:05.108Z,76.78
2022-08-09T09:06:58.203Z,76.20
2022-08-09T09:07:58.107Z,75.91
2022-08-09T09:08:59.677Z,76.10
2022-08-09T09:10:04.640Z,76.39
2022-08-09T09:10:58.021Z,76.29
2022-08-09T09:11:58.205Z,76.10
2022-08-09T09:12:57.967Z,75.43
2022-08-09T09:13:58.676Z,74.36
2022-08-09T09:14:57.909Z,74.36
2022-08-09T09:15:57.884Z,74.59
2022-08-09T09:16:57.853Z,74.55
2022-08-09T09:17:57.830Z,74.59
2022-08-09T09:19:21.485Z,73.91
2022-08-09T09:19:57.777Z,74.11
2022-08-09T09:20:57.747Z,73.63
2022-08-09T09:21:58.055Z,73.63
2022-08-09T09:22:57.700Z,73.63
2022-08-09T09:24:04.474Z,72.75
2022-08-09T09:26:01.442Z,73.14
2022-08-09T09:26:01.809Z,72.95
2022-08-09T09:26:57.582Z,72.08
2022-08-09T09:28:05.841Z,72.56
2022-08-09T09:29:03.964Z,71.88
2022-08-09T09:30:13.894Z,72.46
2022-08-09T09:30:57.475Z,72.60
2022-08-09T09:32:06.163Z,71.72
2022-08-09T09:32:57.417Z,72.21
2022-08-09T09:33:57.386Z,71.72
2022-08-09T09:34:57.359Z,71.72
2022-08-09T09:36:02.489Z,71.53
2022-08-09T09:36:57.310Z,71.18
2022-08-09T09:37:57.274Z,70.50
2022-08-09T09:38:57.408Z,70.40
2022-08-09T09:39:57.869Z,70.60
2022-08-09T09:40:57.194Z,70.11
2022-08-09T09:41:57.240Z,70.01
2022-08-09T09:42:57.142Z,70.70
2022-08-09T09:44:10.594Z,69.92
2022-08-09T09:44:57.084Z,69.63
2022-08-09T09:45:57.589Z,69.34
2022-08-09T09:46:57.041Z,69.34
2022-08-09T09:47:58.932Z,69.92
2022-08-09T09:48:56.977Z,70.01
2022-08-09T09:50:14.987Z,69.92
2022-08-09T09:50:56.925Z,70.73
2022-08-09T09:51:56.896Z,70.21
2022-08-09T09:52:57.473Z,70.15
2022-08-09T09:54:02.163Z,70.15
2022-08-09T09:54:56.819Z,69.67
2022-08-09T09:56:03.887Z,69.85
2022-08-09T09:58:00.738Z,69.67
2022-08-09T09:58:02.767Z,69.47
2022-08-09T09:58:56.706Z,68.89
2022-08-09T09:59:56.679Z,68.79
2022-08-09T10:00:58.438Z,68.79
2022-08-09T10:01:56.626Z,69.18
2022-08-09T10:02:57.442Z,69.18
2022-08-09T10:03:59.196Z,68.99
2022-08-09T10:04:56.544Z,68.63
2022-08-09T10:06:03.234Z,68.63
2022-08-09T10:06:56.493Z,68.54
2022-08-09T10:08:11.124Z,67.95
2022-08-09T10:08:57.854Z,67.95
2022-08-09T10:09:56.407Z,68.24
2022-08-09T10:10:56.397Z,68.15
2022-08-09T10:12:04.535Z,68.05
2022-08-09T10:12:56.572Z,67.66
2022-08-09T10:13:56.313Z,67.66
2022-08-09T10:14:56.288Z,68.08
2022-08-09T10:16:54.585Z,67.99
2022-08-09T10:17:00.378Z,68.86
2022-08-09T10:17:57.063Z,68.86
2022-08-09T10:18:56.175Z,69.06
2022-08-09T10:19:56.949Z,69.15
2022-08-09T10:20:56.118Z,69.06
2022-08-09T10:21:56.093Z,68.37
2022-08-09T10:23:00.456Z,68.41
2022-08-09T10:23:56.040Z,67.92
2022-08-09T10:24:56.009Z,68.51
2022-08-09T10:26:06.458Z,67.73
2022-08-09T10:26:55.958Z,67.54
2022-08-09T10:27:58.204Z,67.73
2022-08-09T10:29:21.398Z,68.05
2022-08-09T10:30:41.757Z,67.47
2022-08-09T10:32:56.120Z,65.92
2022-08-09T10:34:09.544Z,65.72
2022-08-09T10:34:55.747Z,66.40
2022-08-09T10:35:55.718Z,66.24
2022-08-09T10:36:55.696Z,64.98
2022-08-09T10:37:55.669Z,65.08
2022-08-09T10:39:00.152Z,65.56
2022-08-09T10:39:55.635Z,65.95
2022-08-09T10:40:56.440Z,64.69
2022-08-09T10:41:55.569Z,64.69
2022-08-09T10:42:55.542Z,64.72
2022-08-09T10:44:01.076Z,64.53
2022-08-09T10:44:55.487Z,63.65
2022-08-09T10:45:59.973Z,63.26
2022-08-09T10:47:01.197Z,63.78
2022-08-09T10:48:25.881Z,63.36
2022-08-09T10:48:55.383Z,63.20
2022-08-09T10:49:55.364Z,62.90
2022-08-09T10:50:57.566Z,62.81
2022-08-09T10:51:57.432Z,62.90
2022-08-09T10:52:56.692Z,62.54
2022-08-09T10:53:56.439Z,61.67
2022-08-09T10:54:58.239Z,61.87
2022-08-09T10:56:02.365Z,62.06
2022-08-09T10:58:00.826Z,62.09
2022-08-09T10:59:00.615Z,61.34
2022-08-09T11:03:06.510Z,61.34
2022-08-09T11:03:15.835Z,60.56
2022-08-09T11:04:30.968Z,60.36
2022-08-09T11:05:08.476Z,60.08
2022-08-09T11:07:01.541Z,60.30
2022-08-09T11:08:01.210Z,59.72
2022-08-09T11:10:05.128Z,59.06
2022-08-09T11:11:08.922Z,58.77
2022-08-09T11:13:09.036Z,58.97
2022-08-09T11:14:08.993Z,58.70
2022-08-09T11:16:12.950Z,57.82
2022-08-09T11:17:12.883Z,57.95
2022-08-09T11:19:16.798Z,57.46
2022-08-09T11:20:22.923Z,57.00
2022-08-09T11:22:21.689Z,56.68
2022-08-09T11:23:23.902Z,56.41
2022-08-09T11:25:26.023Z,56.32
2022-08-09T11:26:24.562Z,55.73
2022-08-09T11:28:30.588Z,55.76
2022-08-09T11:30:04.455Z,56.05
2022-08-09T11:31:33.815Z,54.88
2022-08-09T11:32:32.596Z,54.88
2022-08-09T11:34:36.282Z,55.47
2022-08-09T11:35:49.698Z,55.08
2022-08-09T11:37:40.684Z,55.52
2022-08-09T11:38:33.240Z,54.54
2022-08-09T11:40:33.990Z,54.08
2022-08-09T11:41:38.475Z,53.81
2022-08-09T11:43:37.449Z,52.05
2022-08-09T11:44:36.903Z,52.27
2022-08-09T11:46:33.107Z,51.49
2022-08-09T11:47:29.755Z,51.86
2022-08-09T11:49:42.792Z,53.34
2022-08-09T11:50:53.688Z,53.42
2022-08-09T11:53:02.718Z,52.71
2022-08-09T11:53:59.094Z,52.42
2022-08-09T11:55:52.103Z,53.13
2022-08-09T11:56:48.127Z,52.27
2022-08-09T11:58:50.304Z,50.71
2022-08-09T11:59:45.322Z,50.81
2022-08-09T12:02:17.674Z,50.15
2022-08-09T12:02:51.262Z,50.66
2022-08-09T12:04:58.134Z,50.17
2022-08-09T12:05:53.132Z,50.85
2022-08-09T12:07:57.065Z,49.41
2022-08-09T12:08:57.029Z,49.82
2022-08-09T12:11:00.952Z,49.65
2022-08-09T12:12:03.106Z,49.41
2022-08-09T12:14:09.950Z,49.82
2022-08-09T12:15:08.890Z,50.49
2022-08-09T12:16:58.369Z,50.71
2022-08-09T12:17:57.661Z,50.17
2022-08-09T12:20:01.610Z,48.72
2022-08-09T12:21:02.758Z,48.80
2022-08-09T12:23:05.490Z,49.31
2022-08-09T12:24:08.911Z,48.96
2022-08-09T12:26:09.393Z,48.03
2022-08-09T12:28:58.770Z,46.90
2022-08-09T12:29:33.400Z,46.03
2022-08-09T12:30:35.307Z,45.86
2022-08-09T12:32:17.209Z,45.00
2022-08-09T12:33:17.168Z,45.21
2022-08-09T12:35:22.019Z,44.18
2022-08-09T12:36:31.283Z,43.78
2022-08-09T12:38:37.578Z,43.70
2022-08-09T12:39:25.055Z,42.72
2022-08-09T12:41:28.911Z,41.65
2022-08-09T12:42:28.891Z,41.71
2022-08-09T12:44:37.503Z,44.21
2022-08-09T12:45:38.618Z,43.91
2022-08-09T12:47:25.643Z,44.17
2022-08-09T12:48:33.375Z,44.48
2022-08-09T12:50:29.562Z,44.13
2022-08-09T12:51:52.456Z,43.86
2022-08-09T12:53:37.576Z,43.71
2022-08-09T12:54:33.500Z,44.31
2022-08-09T12:56:48.603Z,44.09
2022-08-09T12:57:38.685Z,44.01
2022-08-09T13:00:03.393Z,43.84
2022-08-09T13:00:41.312Z,42.95
2022-08-09T13:02:45.682Z,44.15
2022-08-09T13:03:53.565Z,44.81
2022-08-09T13:06:13.306Z,45.25
2022-08-09T13:06:49.071Z,45.67
2022-08-09T13:08:53.165Z,44.11
2022-08-09T13:10:01.080Z,44.11
2022-08-09T13:12:01.700Z,44.21
2022-08-09T13:13:10.949Z,43.93
2022-08-09T13:15:00.830Z,43.79
2022-08-09T13:16:00.806Z,44.64
2022-08-09T13:18:09.618Z,45.79
2022-08-09T13:19:04.708Z,45.23
2022-08-09T13:22:36.589Z,46.25
2022-08-09T13:22:36.658Z,45.77
2022-08-09T13:24:42.562Z,46.04
2022-08-09T13:25:14.283Z,45.52
2022-08-09T13:27:06.046Z,43.82
2022-08-09T13:28:05.352Z,43.27
2022-08-09T13:30:51.379Z,41.85
2022-08-09T13:32:13.273Z,42.16
2022-08-09T13:33:17.259Z,40.61
2022-08-09T13:34:13.183Z,40.33
2022-08-09T13:36:24.640Z,39.60
2022-08-09T13:37:50.501Z,39.79
2022-08-09T13:41:51.429Z,39.99
2022-08-09T13:41:56.385Z,40.27
2022-08-09T13:42:25.036Z,40.53
2022-08-09T13:43:35.601Z,39.65
2022-08-09T13:45:32.302Z,38.59
2022-08-09T13:47:13.693Z,38.31
2022-08-09T13:48:32.752Z,38.21
2022-08-09T13:49:37.807Z,37.63
2022-08-09T13:51:36.696Z,37.04
2022-08-09T13:52:37.011Z,37.34
2022-08-09T13:54:43.143Z,38.15
2022-08-09T13:55:40.574Z,37.05
2022-08-09T13:57:36.305Z,37.39
2022-08-09T13:58:33.405Z,36.79
2022-08-09T14:00:43.791Z,36.51
2022-08-09T14:02:00.630Z,36.41
2022-08-09T14:04:01.313Z,35.85
2022-08-09T14:04:49.405Z,34.74
2022-08-09T14:06:35.971Z,35.63
2022-08-09T14:07:41.120Z,36.05
2022-08-09T14:09:38.026Z,36.35
2022-08-09T14:10:50.359Z,36.84
2022-08-09T14:12:41.915Z,36.28
2022-08-09T14:14:23.034Z,35.97
2022-08-09T14:16:06.556Z,36.30
2022-08-09T14:16:45.805Z,36.81
2022-08-09T14:18:50.644Z,35.54
2022-08-09T14:19:49.730Z,34.63
2022-08-09T14:21:53.653Z,35.41
2022-08-09T14:22:53.632Z,35.09
2022-08-09T14:24:57.585Z,36.18
2022-08-09T14:26:01.487Z,36.10
2022-08-09T14:28:01.476Z,34.64
2022-08-09T14:29:01.456Z,34.64
2022-08-09T14:31:05.414Z,34.06
2022-08-09T14:32:11.339Z,34.18
2022-08-09T14:34:09.335Z,33.97
2022-08-09T14:35:09.299Z,34.53
2022-08-09T14:37:02.189Z,35.09
2022-08-09T14:38:04.334Z,35.21
2022-08-09T14:40:06.219Z,35.62
2022-08-09T14:41:34.367Z,35.54
2022-08-09T14:43:09.982Z,34.64
2022-08-09T14:44:11.354Z,35.47
2022-08-09T14:46:58.475Z,36.51